Latest Weather Observations for Cape Flattery

IDQ60801

Issued at 11:02 am EST Tuesday 28 February 2017 (issued every 30 minutes, with the page automatically refreshed every 10 minutes)

About weather observations | Map of weather stations | Latest weather observations for QLD | Other Formats
Station Details ID: 031213 Name: CAPE FLATTERY Lat: -14.97 Lon: 145.31 Height: 18.5 m
Data from the previous 72 hours. | See also: Recent months at Cape Flattery
Date/Time
EST
Temp
°C
App
Temp
°C
Dew
Point
°C
Rel
Hum
%
Delta-T
°C
Wind Press
QNH
hPa
Press
MSL
hPa
Rain since
9am
mm
Dir  Spd
km/h
Gust
km/h
Spd
kts
Gust
kts
28/11:00am 30.9 29.8 22.8 62 5.6 SE 33 43 18 23 1010.0 1009.9 0.0
28/10:30am 30.9 30.6 23.3 64 5.2 SE 30 39 16 21 1010.0 1009.9 0.0
28/10:00am 30.9 30.9 23.0 62 5.4 SE 28 39 15 21 1010.2 1010.1 0.0
28/09:30am 30.4 30.2 22.8 64 5.2 SE 28 39 15 21 1010.2 1010.1 0.0
28/09:00am 29.9 30.0 23.3 67 4.5 SE 28 37 15 20 1010.1 1010.0 2.2
28/08:30am 29.6 29.3 22.6 66 4.8 SE 28 39 15 21 1009.9 1009.8 2.2
28/08:00am 29.1 28.9 22.8 69 4.3 SE 28 39 15 21 1009.7 1009.6 2.2
28/07:30am 28.7 29.1 23.1 71 3.8 SE 26 35 14 19 1009.4 1009.3 2.2
28/07:00am 27.9 28.4 23.3 76 3.2 SE 26 35 14 19 1008.8 1008.7 2.2
28/06:30am 27.5 28.2 22.9 76 3.1 SE 24 30 13 16 1008.5 1008.4 2.2
28/06:00am 27.8 28.0 23.4 77 3.0 SE 28 39 15 21 1008.4 1008.3 2.2
28/05:30am 27.6 27.4 22.8 75 3.3 SE 28 39 15 21 1008.2 1008.1 2.2
28/05:00am 27.6 28.5 23.4 78 2.9 SE 24 33 13 18 1008.0 1007.9 2.2
28/04:30am 27.6 27.7 23.2 77 3.0 SE 28 39 15 21 1007.9 1007.8 2.2
28/04:00am 27.8 27.1 22.5 73 3.6 SE 30 44 16 24 1007.8 1007.7 2.2
28/03:30am 27.8 27.9 23.2 76 3.1 SE 28 41 15 22 1008.0 1007.9 2.2
28/03:00am 27.5 27.5 23.1 77 3.0 SE 28 39 15 21 1008.2 1008.1 2.2
28/02:30am 27.4 26.6 22.4 74 3.4 SE 30 41 16 22 1008.6 1008.5 2.2
28/02:00am 26.8 27.0 23.5 82 2.3 SE 28 35 15 19 1008.7 1008.6 2.2
28/01:30am 27.1 27.0 22.9 78 2.9 SE 28 46 15 25 1009.1 1009.0 2.2
28/01:00am 28.0 27.9 22.9 74 3.5 SE 28 41 15 22 1009.4 1009.3 2.0
28/12:30am 28.1 27.9 22.8 73 3.6 SE 28 43 15 23 1009.4 1009.3 2.0
28/12:00am 28.0 27.7 22.5 72 3.7 SE 28 41 15 22 1009.8 1009.7 2.0
 
Date/Time
EST
Temp
°C
App
Temp
°C
Dew
Point
°C
Rel
Hum
%
Delta-T
°C
Wind Press
QNH
hPa
Press
MSL
hPa
Rain since
9am
mm
Dir  Spd
km/h
Gust
km/h
Spd
kts
Gust
kts
27/11:30pm 28.1 28.7 22.8 73 3.6 SE 24 33 13 18 1010.2 1010.1 2.0
27/11:00pm 27.6 27.9 23.0 76 3.1 SE 26 35 14 19 1010.4 1010.3 2.0
27/10:30pm 27.6 29.4 23.6 79 2.7 SE 20 28 11 15 1010.3 1010.2 2.0
27/10:00pm 26.7 27.3 23.4 82 2.3 SSE 26 35 14 19 1010.3 1010.2 2.0
27/09:30pm 27.6 29.5 23.8 80 2.6 SE 20 30 11 16 1010.1 1010.0 2.0
27/09:00pm 27.5 29.3 23.5 79 2.7 SE 20 26 11 14 1009.8 1009.7 2.0
27/08:30pm 27.5 28.9 23.5 79 2.7 SE 22 28 12 15 1009.5 1009.4 2.0
27/08:00pm 27.8 28.9 23.6 78 2.9 SE 24 32 13 17 1009.6 1009.5 2.0
27/07:30pm 27.6 29.3 23.4 78 2.9 SE 20 28 11 15 1009.2 1009.1 2.0
27/07:00pm 27.5 29.0 23.1 77 3.0 SE 20 28 11 15 1008.7 1008.6 2.0
27/06:30pm 27.7 29.1 22.9 75 3.3 SE 20 30 11 16 1008.8 1008.7 2.0
27/06:00pm 27.6 28.8 22.5 74 3.5 SE 20 32 11 17 1008.6 1008.5 2.0
27/05:30pm 27.5 28.5 22.2 73 3.6 SE 20 32 11 17 1008.6 1008.5 2.0
27/05:00pm 27.6 27.5 22.3 73 3.6 SE 26 35 14 19 1008.3 1008.2 2.0
27/04:30pm 27.5 28.2 22.9 76 3.1 SE 24 33 13 18 1008.1 1008.0 2.0
27/04:00pm 27.6 28.3 23.0 76 3.1 SE 24 33 13 18 1008.2 1008.1 2.0
27/03:30pm 27.2 28.5 23.4 80 2.6 SSE 22 30 12 16 1008.3 1008.2 2.0
27/03:00pm 28.3 30.2 23.7 76 3.2 SE 20 30 11 16 1008.2 1008.1 1.6
27/02:30pm 28.1 30.1 24.5 81 2.5 SE 22 33 12 18 1008.7 1008.6 1.6
27/02:00pm 27.1 30.1 24.6 86 1.7 ESE 17 24 9 13 1008.9 1008.8 1.6
27/01:30pm 26.3 28.2 23.4 84 2.0 ESE 19 33 10 18 1009.7 1009.6 1.6
27/01:00pm 26.4 27.6 23.9 86 1.7 ESE 24 33 13 18 1010.2 1010.1 1.6
27/12:30pm 26.5 27.6 23.6 84 2.0 E 24 33 13 18 1010.7 1010.6 1.6
27/12:00pm 26.9 27.5 23.4 81 2.4 E 26 37 14 20 1010.7 1010.6 1.6
27/11:30am 27.0 27.4 23.7 82 2.3 E 28 37 15 20 1011.3 1011.2 1.6
27/11:00am 26.9 28.4 24.4 86 1.7 ESE 24 33 13 18 1011.4 1011.3 1.6
27/10:30am 26.7 28.4 24.7 89 1.4 SE 24 32 13 17 1011.5 1011.4 1.6
27/10:00am 26.1 28.4 24.5 91 1.1 ESE 20 32 11 17 1011.6 1011.5 1.6
27/09:30am 24.7 28.5 24.0 96 0.5 E 11 19 6 10 1011.7 1011.6 1.6
27/09:00am 24.8 27.9 24.1 96 0.5 SE 15 20 8 11 1011.5 1011.4 13.6
27/08:30am 24.4 26.8 23.7 96 0.5 SE 17 26 9 14 1011.4 1011.3 10.8
27/08:00am 24.0 27.1 23.5 97 0.3 E 13 17 7 9 1011.2 1011.1 9.4
27/07:30am 23.9 23.5 23.0 95 0.6 SE 30 44 16 24 1011.1 1011.0 4.0
27/07:00am 24.6 24.1 23.6 94 0.7 SSE 32 43 17 23 1010.2 1010.1 2.2
27/06:52am 24.9 25.3 23.7 93 0.8 SSE 28 43 15 23 1010.0 1009.9 2.2
27/06:30am 24.2 27.1 23.2 94 0.7 SE 13 17 7 9 1009.6 1009.5 2.2
27/06:00am 24.7 28.3 23.7 94 0.7 ESE 11 17 6 9 1009.3 1009.2 2.2
27/05:30am 24.5 27.7 23.1 92 0.9 E 11 13 6 7 1009.0 1008.9 0.8
27/05:00am 24.3 26.6 22.7 91 1.1 ESE 15 22 8 12 1008.6 1008.5 0.8
27/04:30am 25.9 26.8 23.9 89 1.4 SE 26 41 14 22 1008.5 1008.4 0.8
27/04:00am 26.1 27.9 24.9 93 0.8 SSE 24 35 13 19 1007.9 1007.8 0.8
27/03:30am 24.4 26.8 23.0 92 0.9 SSE 15 22 8 12 1007.8 1007.7 0.8
27/03:00am 25.4 24.5 22.1 82 2.2 SSE 30 41 16 22 1008.0 1007.9 0.2
27/02:30am 27.6 28.4 23.2 77 3.0 SE 24 33 13 18 1007.9 1007.8 0.2
27/02:00am 27.2 28.2 22.8 77 3.0 SSE 22 30 12 16 1008.1 1008.0 0.2
27/01:30am 27.8 29.1 23.4 77 3.0 SE 22 30 12 16 1008.7 1008.6 0.2
27/01:00am 27.5 29.2 23.1 77 3.0 SE 19 26 10 14 1009.1 1009.0 0.2
27/12:30am 27.9 28.8 23.3 76 3.1 SE 24 32 13 17 1009.3 1009.2 0.2
27/12:00am 27.8 29.4 23.8 79 2.8 SE 22 32 12 17 1009.6 1009.5 0.2
 
Date/Time
EST
Temp
°C
App
Temp
°C
Dew
Point
°C
Rel
Hum
%
Delta-T
°C
Wind Press
QNH
hPa
Press
MSL
hPa
Rain since
9am
mm
Dir  Spd
km/h
Gust
km/h
Spd
kts
Gust
kts
26/11:30pm 28.1 29.3 23.9 78 2.9 SE 24 35 13 19 1009.8 1009.7 0.2
26/11:00pm 28.4 29.8 22.9 72 3.8 SE 20 33 11 18 1010.0 1009.9 0.2
26/10:30pm 28.4 28.8 22.4 70 4.1 SE 24 32 13 17 1010.0 1009.9 0.2
26/10:00pm 28.4 28.9 22.6 71 3.9 SE 24 32 13 17 1009.9 1009.8 0.2
26/09:30pm 28.3 29.4 23.0 73 3.6 SE 22 33 12 18 1009.7 1009.6 0.2
26/09:00pm 28.0 28.7 22.2 70 3.9 SE 22 30 12 16 1009.2 1009.1 0.2
26/08:30pm 28.1 29.2 22.3 70 3.9 SE 20 35 11 19 1009.0 1008.9 0.2
26/08:00pm 28.3 29.3 22.8 72 3.7 SE 22 33 12 18 1008.7 1008.6 0.2
26/07:30pm 28.5 29.6 23.0 72 3.8 SE 22 30 12 16 1008.4 1008.3 0.2
26/07:00pm 28.4 28.7 22.9 72 3.8 SE 26 39 14 21 1008.1 1008.0 0.2
26/06:30pm 28.5 28.8 23.0 72 3.8 SSE 26 33 14 18 1007.8 1007.7 0.2
26/06:00pm 28.6 29.1 22.6 70 4.1 SE 24 37 13 20 1007.6 1007.5 0.2
26/05:30pm 29.0 28.8 22.7 69 4.3 SE 28 39 15 21 1007.5 1007.4 0.2
26/05:00pm 29.0 30.2 23.2 71 4.0 SE 22 33 12 18 1007.5 1007.4 0.2
26/04:30pm 30.1 29.7 23.0 65 4.9 SE 30 39 16 21 1007.3 1007.2 0.2
26/04:00pm 29.7 29.5 22.7 66 4.8 SE 28 37 15 20 1007.2 1007.1 0.2
26/03:30pm 30.0 30.1 23.2 67 4.7 SE 28 39 15 21 1007.3 1007.2 0.2
26/03:00pm 30.0 29.4 21.9 62 5.5 SSE 28 39 15 21 1007.4 1007.3 0.2
26/02:30pm 30.1 30.2 23.3 67 4.7 SE 28 35 15 19 1007.5 1007.4 0.2
26/02:00pm 29.9 29.6 23.3 67 4.5 SE 30 39 16 21 1007.6 1007.5 0.2
26/01:30pm 31.6 32.0 23.7 63 5.5 SE 28 37 15 20 1007.9 1007.8 0.2
26/01:00pm 30.5 30.9 23.7 67 4.7 SE 28 35 15 19 1008.3 1008.2 0.2
26/12:30pm 30.4 33.2 25.0 73 3.8 ESE 19 28 10 15 1008.8 1008.7 0.2
26/12:00pm 29.1 31.0 24.4 76 3.3 SSE 22 28 12 15 1009.1 1009.0 0.2
26/11:30am 30.1 33.0 25.4 76 3.3 SSE 20 28 11 15 1009.5 1009.4 0.2
26/11:00am 29.2 32.8 26.2 84 2.1 SSE 19 24 10 13 1009.5 1009.4 0.2
26/10:30am 28.4 32.6 26.0 87 1.7 S 15 20 8 11 1009.8 1009.7 0.0
26/10:00am 26.5 31.6 25.5 94 0.7 SW 9 13 5 7 1010.0 1009.9 0.0
26/09:30am 25.6 30.7 24.7 95 0.6 W 6 7 3 4 1010.0 1009.9 0.0
26/09:00am 24.7 29.2 24.0 96 0.5 SSW 7 9 4 5 1009.5 1009.4 14.8
26/08:30am 23.6 26.7 22.9 96 0.5 SSW 11 13 6 7 1009.4 1009.3 14.6
26/08:00am 23.2 26.5 22.5 96 0.5 S 9 13 5 7 1009.5 1009.4 14.4
26/07:30am 23.4 24.7 22.7 96 0.5 SSE 20 35 11 19 1010.2 1010.1 12.8
26/07:29am 23.5 25.2 23.0 97 0.3 SSE 19 32 10 17 1010.2 1010.1 12.0
26/07:00am 23.4 27.4 22.7 96 0.5 SW 6 9 3 5 1009.5 1009.4 10.0
26/06:30am 23.3 27.6 22.6 96 0.5 NE 4 7 2 4 1009.3 1009.2 9.8
26/06:00am 23.2 26.1 22.5 96 0.5 SSW 11 22 6 12 1009.2 1009.1 9.6
26/05:30am 23.7 27.3 23.0 96 0.5 NE 9 13 5 7 1009.3 1009.2 8.6
26/05:00am 23.7 27.8 22.9 95 0.5 N 6 7 3 4 1008.6 1008.5 8.2
26/04:30am 24.8 27.7 23.9 95 0.6 SE 15 30 8 16 1008.7 1008.6 5.8
26/04:00am 24.5 28.8 23.6 95 0.6 SW 7 11 4 6 1008.0 1007.9 5.0
26/03:30am 24.6 29.1 23.6 94 0.7 SW 6 7 3 4 1008.1 1008.0 5.0
26/03:00am 24.8 29.2 23.8 94 0.7 SSW 7 9 4 5 1008.1 1008.0 5.0
26/02:30am 25.0 29.1 24.0 94 0.7 S 9 13 5 7 1008.4 1008.3 5.0
26/02:00am 23.9 27.6 22.5 92 0.9 SSE 7 11 4 6 1008.5 1008.4 5.0
26/01:30am 23.9 25.1 21.4 86 1.6 SSE 17 26 9 14 1009.0 1008.9 5.0
26/01:00am 25.6 28.7 24.2 92 1.0 SSE 15 22 8 12 1009.4 1009.3 5.0
26/12:30am 25.8 29.2 24.6 93 0.8 SE 15 20 8 11 1009.8 1009.7 5.0
26/12:00am 25.7 29.3 24.3 92 1.0 SE 13 26 7 14 1010.1 1010.0 5.0
 
Date/Time
EST
Temp
°C
App
Temp
°C
Dew
Point
°C
Rel
Hum
%
Delta-T
°C
Wind Press
QNH
hPa
Press
MSL
hPa
Rain since
9am
mm
Dir  Spd
km/h
Gust
km/h
Spd
kts
Gust
kts
25/11:30pm 25.3 28.5 24.3 94 0.7 SSE 15 17 8 9 1010.7 1010.6 5.0
25/11:00pm 25.2 27.2 24.0 93 0.8 SSE 20 28 11 15 1011.0 1010.9 4.8
25/10:30pm 25.5 27.5 24.5 94 0.7 SE 22 30 12 16 1010.9 1010.8 4.6
25/10:00pm 25.5 25.8 24.3 93 0.8 SE 30 43 16 23 1010.7 1010.6 4.2
25/09:30pm 26.2 27.0 24.4 90 1.2 ESE 28 43 15 23 1010.2 1010.1 4.2
25/09:00pm 26.3 28.4 24.7 91 1.1 S 22 30 12 16 1009.9 1009.8 4.2
25/08:30pm 26.5 27.6 24.9 91 1.1 SSE 28 33 15 18 1009.6 1009.5 4.2
25/08:00pm 26.3 27.1 24.5 90 1.2 SSE 28 43 15 23 1009.7 1009.6 4.2
25/07:30pm 27.0 29.2 24.8 88 1.5 SE 22 33 12 18 1009.1 1009.0 4.2
25/07:00pm 26.0 28.5 24.8 93 0.8 S 20 26 11 14 1008.7 1008.6 4.2
25/06:30pm 25.8 28.2 24.2 91 1.1 SW 19 26 10 14 1008.5 1008.4 4.2
25/06:00pm 27.6 28.6 22.1 72 3.7 SE 20 41 11 22 1007.6 1007.5 0.0
25/05:30pm 28.9 31.3 23.6 73 3.7 SE 17 22 9 12 1007.4 1007.3 0.0
25/05:00pm 29.6 31.8 24.0 72 3.9 SE 19 24 10 13 1007.2 1007.1 0.0
25/04:30pm 30.3 32.6 23.5 67 4.7 SE 17 24 9 13 1007.3 1007.2 0.0
25/04:00pm 30.0 31.6 23.9 70 4.2 SE 22 30 12 16 1007.3 1007.2 0.0
25/03:30pm 30.9 32.7 24.3 68 4.6 SE 22 28 12 15 1007.7 1007.6 0.0
25/03:00pm 31.2 32.5 23.3 63 5.5 SE 22 32 12 17 1007.7 1007.6 0.0
25/02:30pm 30.6 33.4 25.0 72 3.9 ESE 19 28 10 15 1007.9 1007.8 0.0
25/02:00pm 30.5 31.1 23.4 66 4.9 SE 26 39 14 21 1008.5 1008.4 0.0
25/01:30pm 30.6 32.5 23.5 66 4.9 SE 19 24 10 13 1008.9 1008.8 0.0
25/01:00pm 31.4 34.1 24.8 68 4.6 SE 19 26 10 14 1009.2 1009.1 0.0
25/12:30pm 30.4 32.9 24.5 70 4.1 SE 19 28 10 15 1009.7 1009.6 0.0
25/12:00pm 30.8 33.4 24.9 71 4.2 SE 20 28 11 15 1010.0 1009.9 0.0
25/11:30am 30.6 32.6 24.0 68 4.6 SE 20 28 11 15 1010.4 1010.3 0.0

Other Formats:

Comma delimited format used in spreadsheet applications
http://www.bom.gov.au/fwo/IDQ60801/IDQ60801.94188.axf

JavaScript Object Notation format (JSON) in row-major order
http://www.bom.gov.au/fwo/IDQ60801/IDQ60801.94188.json